createdAt,value
2023-03-25T00:04:50.137Z,29.66
2023-03-25T00:09:57.297Z,28.74
2023-03-25T00:15:04.494Z,29.91
2023-03-25T00:20:11.832Z,30.02
2023-03-25T00:25:19.229Z,30.10
2023-03-25T00:30:26.325Z,29.75
2023-03-25T00:35:33.525Z,29.98
2023-03-25T00:40:40.709Z,29.19
2023-03-25T00:45:48.062Z,29.34
2023-03-25T00:50:55.334Z,29.58
2023-03-25T00:56:02.554Z,29.57
2023-03-25T01:01:09.890Z,29.24
2023-03-25T01:06:17.010Z,29.39
2023-03-25T01:11:24.202Z,29.11
2023-03-25T01:16:31.480Z,29.37
2023-03-25T01:21:38.567Z,29.70
2023-03-25T01:26:45.831Z,29.97
2023-03-25T01:32:01.211Z,29.69
2023-03-25T01:37:43.871Z,29.67
2023-03-25T01:42:51.265Z,29.62
2023-03-25T01:47:59.194Z,29.64
2023-03-25T01:53:51.035Z,29.56
2023-03-25T01:59:29.971Z,29.23
2023-03-25T02:05:12.706Z,29.29
2023-03-25T02:10:32.578Z,29.34
2023-03-25T02:16:27.646Z,29.23
2023-03-25T02:21:39.876Z,30.04
2023-03-25T02:27:09.691Z,30.48
2023-03-25T02:32:49.814Z,31.08
2023-03-25T02:37:57.164Z,32.28
2023-03-25T02:43:05.067Z,32.83
2023-03-25T02:48:12.434Z,32.13
2023-03-25T02:53:20.104Z,31.58
2023-03-25T02:58:27.574Z,31.53
2023-03-25T03:03:34.970Z,31.37
2023-03-25T03:08:42.351Z,31.40
2023-03-25T03:13:50.029Z,31.47
2023-03-25T03:18:57.674Z,31.53
2023-03-25T03:24:05.022Z,31.50
2023-03-25T03:29:12.506Z,31.56
2023-03-25T03:34:20.160Z,31.65
2023-03-25T03:39:27.727Z,31.53
2023-03-25T03:44:35.020Z,31.58
2023-03-25T03:49:42.246Z,31.64
2023-03-25T03:54:49.611Z,31.58
2023-03-25T03:59:57.012Z,31.47
2023-03-25T04:05:04.362Z,31.52
2023-03-25T04:10:12.024Z,31.90
2023-03-25T04:15:19.396Z,32.17
2023-03-25T04:20:26.732Z,32.88
2023-03-25T04:25:33.997Z,32.72
2023-03-25T04:30:41.215Z,32.59
2023-03-25T04:35:48.480Z,32.67
2023-03-25T04:40:55.637Z,33.05
2023-03-25T04:46:02.867Z,32.95
2023-03-25T04:51:10.012Z,33.18
2023-03-25T04:56:17.398Z,33.16
2023-03-25T05:01:24.714Z,33.11
2023-03-25T05:06:31.995Z,33.43
2023-03-25T05:11:39.478Z,33.55
2023-03-25T05:16:46.919Z,33.54
2023-03-25T05:21:54.145Z,33.48
2023-03-25T05:27:01.544Z,33.56
2023-03-25T05:32:08.882Z,33.83
2023-03-25T05:37:16.264Z,33.49
2023-03-25T05:42:23.581Z,33.82
2023-03-25T05:47:30.955Z,33.95
2023-03-25T05:52:38.529Z,33.92
2023-03-25T05:57:46.300Z,34.00
2023-03-25T06:02:55.922Z,34.14
2023-03-25T06:08:03.254Z,34.22
2023-03-25T06:13:10.682Z,34.22
2023-03-25T06:18:18.030Z,34.26
2023-03-25T06:23:25.400Z,34.06
2023-03-25T06:28:32.762Z,33.85
2023-03-25T06:33:42.919Z,34.11
2023-03-25T06:38:47.779Z,34.16
2023-03-25T06:43:55.385Z,34.24
2023-03-25T06:49:02.846Z,34.21
2023-03-25T06:54:10.246Z,34.45
2023-03-25T06:59:17.690Z,34.37
2023-03-25T07:04:25.224Z,34.50
2023-03-25T07:09:32.717Z,34.63
2023-03-25T07:14:40.175Z,34.72
2023-03-25T07:19:47.626Z,34.84
2023-03-25T07:24:54.945Z,35.11
2023-03-25T07:30:02.515Z,35.04
2023-03-25T07:35:09.865Z,34.47
2023-03-25T07:40:17.148Z,34.29
2023-03-25T07:45:24.873Z,34.57
2023-03-25T07:50:32.333Z,34.95
2023-03-25T07:55:39.604Z,35.30
2023-03-25T08:00:46.926Z,35.11
2023-03-25T08:05:54.594Z,35.18
2023-03-25T08:11:01.862Z,35.27
2023-03-25T08:16:09.408Z,34.97
2023-03-25T08:21:16.728Z,35.24
2023-03-25T08:26:24.145Z,35.08
2023-03-25T08:31:31.547Z,34.83
2023-03-25T08:36:38.937Z,34.78
2023-03-25T08:41:46.537Z,35.25
2023-03-25T08:46:58.812Z,35.07
2023-03-25T08:52:06.075Z,35.31
2023-03-25T08:57:20.971Z,35.18
2023-03-25T09:02:28.409Z,34.81
2023-03-25T09:07:35.730Z,34.59
2023-03-25T09:12:43.126Z,34.70
2023-03-25T09:17:50.471Z,34.46
2023-03-25T09:22:57.793Z,34.75
2023-03-25T09:28:05.128Z,34.13
2023-03-25T09:33:12.442Z,34.48
2023-03-25T09:38:19.615Z,34.51
2023-03-25T09:43:26.927Z,34.15
2023-03-25T09:48:34.075Z,34.21
2023-03-25T09:53:41.258Z,34.54
2023-03-25T09:58:48.464Z,34.86
2023-03-25T10:04:04.775Z,34.93
2023-03-25T10:09:08.544Z,35.26
2023-03-25T10:14:15.971Z,36.08
2023-03-25T10:19:23.512Z,36.35
2023-03-25T10:24:30.943Z,35.44
2023-03-25T10:29:38.353Z,35.30
2023-03-25T10:34:45.808Z,35.27
2023-03-25T10:39:53.176Z,35.27
2023-03-25T10:45:00.651Z,35.07
2023-03-25T10:50:08.042Z,35.49
2023-03-25T10:55:15.919Z,35.81
2023-03-25T11:00:23.481Z,35.37
2023-03-25T11:05:48.132Z,34.86
2023-03-25T11:10:51.692Z,34.55
2023-03-25T11:15:59.113Z,34.51
2023-03-25T11:21:07.773Z,34.29
2023-03-25T11:26:14.971Z,34.21
2023-03-25T11:31:22.316Z,34.30
2023-03-25T11:36:29.558Z,34.15
2023-03-25T11:41:36.897Z,34.28
2023-03-25T11:46:49.012Z,34.60
2023-03-25T11:51:56.316Z,34.19
2023-03-25T11:57:03.506Z,33.65
2023-03-25T12:02:10.740Z,33.31
2023-03-25T12:07:17.973Z,33.10
2023-03-25T12:12:25.159Z,32.86
2023-03-25T12:17:32.493Z,32.62
2023-03-25T12:22:39.650Z,32.58
2023-03-25T12:27:46.907Z,31.70
2023-03-25T12:32:54.112Z,31.28
2023-03-25T12:38:01.293Z,29.59
2023-03-25T12:43:08.475Z,30.13
2023-03-25T12:48:15.713Z,28.92
2023-03-25T12:53:22.955Z,29.66
2023-03-25T12:58:30.122Z,29.37
2023-03-25T13:03:37.292Z,28.97
2023-03-25T13:08:44.490Z,29.14
2023-03-25T13:13:51.642Z,29.27
2023-03-25T13:18:58.840Z,29.38
2023-03-25T13:24:06.050Z,28.64
2023-03-25T13:29:13.205Z,28.92
2023-03-25T13:34:20.409Z,28.72
2023-03-25T13:39:27.693Z,28.67
2023-03-25T13:44:34.889Z,28.33
2023-03-25T13:49:42.167Z,28.39
2023-03-25T13:54:49.457Z,27.93
2023-03-25T13:59:56.610Z,27.61
2023-03-25T14:05:03.906Z,27.72
2023-03-25T14:10:11.120Z,27.23
2023-03-25T14:15:18.284Z,27.14
2023-03-25T14:20:25.507Z,26.96
2023-03-25T14:25:32.706Z,26.79
2023-03-25T14:30:39.920Z,26.37
2023-03-25T14:35:47.156Z,26.75
2023-03-25T14:41:02.244Z,27.23
2023-03-25T14:46:01.495Z,27.80
2023-03-25T14:51:08.693Z,27.75
2023-03-25T14:56:15.866Z,27.89
2023-03-25T15:01:23.057Z,27.79
2023-03-25T15:06:30.211Z,27.76
2023-03-25T15:11:37.440Z,28.08
2023-03-25T15:16:44.831Z,28.82
2023-03-25T15:21:52.114Z,28.32
2023-03-25T15:26:59.502Z,28.01
2023-03-25T15:32:06.707Z,28.41
2023-03-25T15:37:13.957Z,28.54
2023-03-25T15:42:21.265Z,27.90
2023-03-25T15:47:28.522Z,27.83
2023-03-25T15:52:35.797Z,28.47
2023-03-25T15:57:43.123Z,28.65
2023-03-25T16:02:50.347Z,28.37
2023-03-25T16:07:57.556Z,29.12
2023-03-25T16:13:04.775Z,28.34
2023-03-25T16:18:12.203Z,27.80
2023-03-25T16:23:19.548Z,27.67
2023-03-25T16:28:26.888Z,27.46
2023-03-25T16:33:34.088Z,28.32
2023-03-25T16:43:48.461Z,29.03
2023-03-25T16:59:10.245Z,29.37
2023-03-25T17:04:17.478Z,29.09
2023-03-25T17:09:24.697Z,28.68
2023-03-25T17:14:32.206Z,26.64
2023-03-25T17:19:39.432Z,27.69
2023-03-25T17:29:53.890Z,27.57
2023-03-25T17:40:08.753Z,27.74
2023-03-25T17:45:16.336Z,27.08
2023-03-25T17:50:23.550Z,27.47
2023-03-25T17:55:30.742Z,27.42
2023-03-25T18:05:45.260Z,27.60
2023-03-25T18:10:53.003Z,27.56
2023-03-25T18:15:59.768Z,27.78
2023-03-25T18:36:29.489Z,28.12
2023-03-25T18:41:37.063Z,28.02
2023-03-25T18:46:44.799Z,27.31
2023-03-25T18:51:52.450Z,27.94
2023-03-25T18:57:01.226Z,28.05
2023-03-25T19:02:08.764Z,28.04
2023-03-25T19:07:16.315Z,28.00
2023-03-25T19:12:23.943Z,28.05
2023-03-25T19:17:31.969Z,28.10
2023-03-25T19:27:47.634Z,28.01
2023-03-25T19:32:55.369Z,28.04
2023-03-25T19:38:03.145Z,27.94
2023-03-25T19:43:10.736Z,27.92
2023-03-25T19:48:18.476Z,28.62
2023-03-25T19:53:26.172Z,28.11
2023-03-25T19:58:33.647Z,28.53
2023-03-25T20:03:41.413Z,28.66
2023-03-25T20:08:48.873Z,28.48
2023-03-25T20:13:56.835Z,28.50
2023-03-25T20:19:04.199Z,28.32
2023-03-25T20:24:12.609Z,28.32
2023-03-25T20:29:20.292Z,28.42
2023-03-25T20:34:27.770Z,28.67
2023-03-25T20:39:35.231Z,28.44
2023-03-25T20:44:42.824Z,28.31
2023-03-25T20:49:50.465Z,28.40
2023-03-25T20:54:57.863Z,28.58
2023-03-25T21:00:05.163Z,28.41
2023-03-25T21:05:12.768Z,28.40
2023-03-25T21:10:20.161Z,28.12
2023-03-25T21:15:27.697Z,28.20
2023-03-25T21:20:35.159Z,28.02
2023-03-25T21:25:42.375Z,28.34
2023-03-25T21:30:49.725Z,28.49
2023-03-25T21:35:57.090Z,28.55
2023-03-25T21:41:04.262Z,28.49
2023-03-25T21:46:11.579Z,28.51
2023-03-25T21:51:19.079Z,28.59
2023-03-25T21:56:26.662Z,28.02
2023-03-25T22:01:34.112Z,27.71
2023-03-25T22:06:41.300Z,27.45
2023-03-25T22:11:48.589Z,27.18
2023-03-25T22:16:55.912Z,26.89
2023-03-25T22:22:03.131Z,27.40
2023-03-25T22:27:10.391Z,27.21
2023-03-25T22:32:17.592Z,27.45
2023-03-25T22:37:24.887Z,27.78
2023-03-25T22:42:32.161Z,27.82
2023-03-25T22:47:39.521Z,27.94
2023-03-25T22:52:46.738Z,27.86
2023-03-25T22:57:53.904Z,27.65
2023-03-25T23:03:01.275Z,27.31
2023-03-25T23:08:08.507Z,27.04
2023-03-25T23:13:15.768Z,26.77
2023-03-25T23:18:23.027Z,26.70
2023-03-25T23:23:30.286Z,27.20
2023-03-25T23:28:40.797Z,26.77
2023-03-25T23:33:45.542Z,26.79
2023-03-25T23:38:52.932Z,26.87
2023-03-25T23:44:00.156Z,26.92
2023-03-25T23:49:07.370Z,26.50
2023-03-25T23:54:14.798Z,27.16
2023-03-25T23:59:22.092Z,26.87
